sensor_id;sensor_type;location;lat;lon;timestamp;pressure;altitude;pressure_sealevel;temperature;humidity
36304;BME280;22335;49.800;8.596;2023-10-09T00:00:42;101065.03;;;21.64;50.24
36304;BME280;22335;49.800;8.596;2023-10-09T00:07:44;101062.50;;;21.59;50.26
36304;BME280;22335;49.800;8.596;2023-10-09T00:14:29;101062.38;;;21.56;50.20
36304;BME280;22335;49.800;8.596;2023-10-09T00:21:15;101048.56;;;21.47;50.20
36304;BME280;22335;49.800;8.596;2023-10-09T00:28:03;101040.53;;;21.46;50.21
36304;BME280;22335;49.800;8.596;2023-10-09T00:35:00;101038.09;;;21.44;50.24
36304;BME280;22335;49.800;8.596;2023-10-09T00:42:03;101023.25;;;21.40;50.31
36304;BME280;22335;49.800;8.596;2023-10-09T00:48:50;101018.72;;;21.35;50.40
36304;BME280;22335;49.800;8.596;2023-10-09T00:55:37;101026.91;;;21.32;50.44
36304;BME280;22335;49.800;8.596;2023-10-09T01:02:27;101024.13;;;21.32;50.38
36304;BME280;22335;49.800;8.596;2023-10-09T01:09:19;101008.13;;;21.29;50.43
36304;BME280;22335;49.800;8.596;2023-10-09T01:16:04;100995.38;;;21.28;50.51
36304;BME280;22335;49.800;8.596;2023-10-09T01:22:48;100985.06;;;21.28;50.50
36304;BME280;22335;49.800;8.596;2023-10-09T01:29:33;100978.09;;;21.22;50.62
36304;BME280;22335;49.800;8.596;2023-10-09T01:36:16;100967.97;;;21.17;50.64
36304;BME280;22335;49.800;8.596;2023-10-09T01:43:12;100970.63;;;21.14;50.63
36304;BME280;22335;49.800;8.596;2023-10-09T01:50:01;100971.00;;;21.12;50.79
36304;BME280;22335;49.800;8.596;2023-10-09T01:56:46;100950.56;;;21.08;50.84
36304;BME280;22335;49.800;8.596;2023-10-09T02:03:30;100958.09;;;21.08;50.79
36304;BME280;22335;49.800;8.596;2023-10-09T02:10:19;100957.19;;;21.04;50.83
36304;BME280;22335;49.800;8.596;2023-10-09T02:17:07;100957.06;;;21.00;50.89
36304;BME280;22335;49.800;8.596;2023-10-09T02:23:59;100941.13;;;20.88;50.87
36304;BME280;22335;49.800;8.596;2023-10-09T02:30:47;100969.91;;;21.05;50.95
36304;BME280;22335;49.800;8.596;2023-10-09T02:37:32;100969.22;;;21.08;50.85
36304;BME280;22335;49.800;8.596;2023-10-09T02:44:19;100964.25;;;21.13;50.83
36304;BME280;22335;49.800;8.596;2023-10-09T03:06:09;100940.00;;;21.02;51.01
36304;BME280;22335;49.800;8.596;2023-10-09T03:12:54;100942.53;;;20.94;51.08
36304;BME280;22335;49.800;8.596;2023-10-09T03:19:38;100932.44;;;20.90;51.16
36304;BME280;22335;49.800;8.596;2023-10-09T03:26:23;100932.00;;;20.88;51.17
36304;BME280;22335;49.800;8.596;2023-10-09T03:33:07;100917.28;;;20.87;51.21
36304;BME280;22335;49.800;8.596;2023-10-09T03:39:51;100926.31;;;20.84;51.16
36304;BME280;22335;49.800;8.596;2023-10-09T03:46:37;100931.88;;;20.84;51.35
36304;BME280;22335;49.800;8.596;2023-10-09T03:53:25;100928.25;;;20.84;51.37
36304;BME280;22335;49.800;8.596;2023-10-09T04:00:11;100922.34;;;20.85;51.36
36304;BME280;22335;49.800;8.596;2023-10-09T04:07:09;100914.34;;;20.84;51.36
36304;BME280;22335;49.800;8.596;2023-10-09T04:13:53;100904.38;;;20.83;51.35
36304;BME280;22335;49.800;8.596;2023-10-09T04:20:36;100901.50;;;20.79;51.44
36304;BME280;22335;49.800;8.596;2023-10-09T04:27:51;100917.59;;;20.86;51.32
36304;BME280;22335;49.800;8.596;2023-10-09T04:34:41;100917.03;;;20.92;51.42
36304;BME280;22335;49.800;8.596;2023-10-09T04:41:30;100916.34;;;20.95;51.40
36304;BME280;22335;49.800;8.596;2023-10-09T04:48:34;100930.94;;;20.92;51.50
36304;BME280;22335;49.800;8.596;2023-10-09T04:55:20;100922.59;;;20.92;51.52
36304;BME280;22335;49.800;8.596;2023-10-09T05:02:07;100919.00;;;20.92;51.48
36304;BME280;22335;49.800;8.596;2023-10-09T05:09:01;100930.50;;;20.90;51.51
36304;BME280;22335;49.800;8.596;2023-10-09T05:15:54;100933.91;;;20.75;51.74
36304;BME280;22335;49.800;8.596;2023-10-09T05:22:38;100935.72;;;20.71;51.64
36304;BME280;22335;49.800;8.596;2023-10-09T05:29:35;100939.81;;;20.73;51.65
36304;BME280;22335;49.800;8.596;2023-10-09T05:36:30;100935.31;;;20.81;51.66
36304;BME280;22335;49.800;8.596;2023-10-09T05:43:16;100935.78;;;20.83;51.57
36304;BME280;22335;49.800;8.596;2023-10-09T05:50:15;100933.97;;;20.87;51.62
36304;BME280;22335;49.800;8.596;2023-10-09T05:57:19;100927.56;;;20.87;51.54
36304;BME280;22335;49.800;8.596;2023-10-09T06:04:16;100934.16;;;20.82;51.78
36304;BME280;22335;49.800;8.596;2023-10-09T06:11:02;100934.59;;;20.72;51.73
36304;BME280;22335;49.800;8.596;2023-10-09T06:18:07;100934.75;;;20.55;51.96
36304;BME280;22335;49.800;8.596;2023-10-09T06:25:05;100942.44;;;20.49;52.12
36304;BME280;22335;49.800;8.596;2023-10-09T06:31:53;100948.34;;;20.47;52.13
36304;BME280;22335;49.800;8.596;2023-10-09T06:38:40;100946.72;;;20.46;52.07
36304;BME280;22335;49.800;8.596;2023-10-09T06:45:55;100965.13;;;20.60;52.01
36304;BME280;22335;49.800;8.596;2023-10-09T06:52:57;100962.00;;;20.61;51.96
36304;BME280;22335;49.800;8.596;2023-10-09T06:59:55;100957.38;;;20.65;51.98
36304;BME280;22335;49.800;8.596;2023-10-09T07:06:55;100965.03;;;20.68;52.09
36304;BME280;22335;49.800;8.596;2023-10-09T07:13:41;100968.63;;;20.69;51.99
36304;BME280;22335;49.800;8.596;2023-10-09T07:20:34;100966.94;;;20.56;52.05
36304;BME280;22335;49.800;8.596;2023-10-09T07:27:21;100967.31;;;20.45;52.32
36304;BME280;22335;49.800;8.596;2023-10-09T07:34:26;100979.22;;;20.25;52.46
36304;BME280;22335;49.800;8.596;2023-10-09T07:41:34;100970.53;;;20.06;52.84
36304;BME280;22335;49.800;8.596;2023-10-09T07:48:19;100967.28;;;20.03;52.90
36304;BME280;22335;49.800;8.596;2023-10-09T07:55:08;100981.13;;;20.12;52.85
36304;BME280;22335;49.800;8.596;2023-10-09T08:02:07;100981.69;;;20.26;52.62
36304;BME280;22335;49.800;8.596;2023-10-09T08:08:54;101004.13;;;20.42;52.73
36304;BME280;22335;49.800;8.596;2023-10-09T08:15:56;100992.44;;;20.58;52.63
36304;BME280;22335;49.800;8.596;2023-10-09T08:22:45;101008.69;;;20.68;52.73
36304;BME280;22335;49.800;8.596;2023-10-09T08:29:33;101006.31;;;20.79;52.61
36304;BME280;22335;49.800;8.596;2023-10-09T08:36:18;101011.13;;;20.90;52.68
36304;BME280;22335;49.800;8.596;2023-10-09T08:43:08;101025.16;;;20.94;52.84
36304;BME280;22335;49.800;8.596;2023-10-09T08:49:52;101000.81;;;20.91;52.81
36304;BME280;22335;49.800;8.596;2023-10-09T08:56:36;101000.09;;;20.82;53.06
36304;BME280;22335;49.800;8.596;2023-10-09T09:03:37;101000.63;;;20.75;53.02
36304;BME280;22335;49.800;8.596;2023-10-09T09:10:25;101006.03;;;20.71;53.14
36304;BME280;22335;49.800;8.596;2023-10-09T09:17:18;100998.38;;;20.68;53.04
36304;BME280;22335;49.800;8.596;2023-10-09T09:24:12;101013.03;;;20.78;53.19
36304;BME280;22335;49.800;8.596;2023-10-09T09:31:08;101013.56;;;20.92;53.06
36304;BME280;22335;49.800;8.596;2023-10-09T09:37:56;101023.66;;;20.96;53.02
36304;BME280;22335;49.800;8.596;2023-10-09T09:44:45;101036.19;;;21.03;53.05
36304;BME280;22335;49.800;8.596;2023-10-09T09:51:29;101032.75;;;21.18;53.07
36304;BME280;22335;49.800;8.596;2023-10-09T09:58:15;101034.72;;;21.38;52.97
36304;BME280;22335;49.800;8.596;2023-10-09T10:05:04;101019.78;;;21.43;52.99
36304;BME280;22335;49.800;8.596;2023-10-09T10:11:49;101034.75;;;21.51;52.93
36304;BME280;22335;49.800;8.596;2023-10-09T10:18:51;101046.38;;;21.53;53.05
36304;BME280;22335;49.800;8.596;2023-10-09T10:25:40;101054.34;;;21.54;53.08
36304;BME280;22335;49.800;8.596;2023-10-09T10:32:24;101072.25;;;21.66;53.01
36304;BME280;22335;49.800;8.596;2023-10-09T10:39:40;101063.22;;;21.81;52.92
36304;BME280;22335;49.800;8.596;2023-10-09T10:46:32;101027.38;;;21.79;52.99
36304;BME280;22335;49.800;8.596;2023-10-09T10:53:24;101039.31;;;21.80;53.15
36304;BME280;22335;49.800;8.596;2023-10-09T11:00:12;100989.06;;;21.76;53.05
36304;BME280;22335;49.800;8.596;2023-10-09T11:07:16;100947.66;;;21.75;53.16
36304;BME280;22335;49.800;8.596;2023-10-09T11:14:08;100956.47;;;21.77;53.18
36304;BME280;22335;49.800;8.596;2023-10-09T11:20:57;100959.84;;;21.82;53.11
36304;BME280;22335;49.800;8.596;2023-10-09T11:28:01;100950.19;;;22.04;52.92
36304;BME280;22335;49.800;8.596;2023-10-09T11:35:11;100963.53;;;22.23;52.85
36304;BME280;22335;49.800;8.596;2023-10-09T11:42:05;100968.50;;;22.42;52.71
36304;BME280;22335;49.800;8.596;2023-10-09T11:49:01;100952.75;;;22.62;53.07
36304;BME280;22335;49.800;8.596;2023-10-09T11:56:07;100931.34;;;22.66;52.87
36304;BME280;22335;49.800;8.596;2023-10-09T12:02:56;100916.38;;;22.87;52.56
36304;BME280;22335;49.800;8.596;2023-10-09T12:09:46;100898.78;;;22.98;52.75
36304;BME280;22335;49.800;8.596;2023-10-09T12:16:30;100909.97;;;23.14;52.56
36304;BME280;22335;49.800;8.596;2023-10-09T12:23:15;100891.69;;;23.17;52.44
36304;BME280;22335;49.800;8.596;2023-10-09T12:29:59;100890.97;;;23.20;52.49
36304;BME280;22335;49.800;8.596;2023-10-09T12:36:44;100896.09;;;23.34;52.33
36304;BME280;22335;49.800;8.596;2023-10-09T12:43:29;100884.81;;;23.46;52.24
36304;BME280;22335;49.800;8.596;2023-10-09T12:50:12;100864.63;;;23.53;52.17
36304;BME280;22335;49.800;8.596;2023-10-09T12:56:56;100866.34;;;23.57;52.38
36304;BME280;22335;49.800;8.596;2023-10-09T13:03:41;100859.75;;;23.65;52.31
36304;BME280;22335;49.800;8.596;2023-10-09T13:10:25;100854.81;;;23.75;52.33
36304;BME280;22335;49.800;8.596;2023-10-09T13:17:12;100860.34;;;23.90;51.77
36304;BME280;22335;49.800;8.596;2023-10-09T13:23:57;100857.59;;;24.10;52.03
36304;BME280;22335;49.800;8.596;2023-10-09T13:30:44;100851.19;;;24.29;51.89
36304;BME280;22335;49.800;8.596;2023-10-09T13:37:30;100841.00;;;24.40;51.45
36304;BME280;22335;49.800;8.596;2023-10-09T13:44:19;100838.00;;;24.49;51.33
36304;BME280;22335;49.800;8.596;2023-10-09T13:51:02;100842.63;;;24.60;51.45
36304;BME280;22335;49.800;8.596;2023-10-09T13:57:49;100834.38;;;24.68;51.00
36304;BME280;22335;49.800;8.596;2023-10-09T14:04:33;100860.16;;;24.80;51.28
36304;BME280;22335;49.800;8.596;2023-10-09T14:11:18;100840.91;;;24.98;50.97
36304;BME280;22335;49.800;8.596;2023-10-09T14:18:02;100825.81;;;25.03;50.81
36304;BME280;22335;49.800;8.596;2023-10-09T14:24:51;100823.88;;;25.07;50.70
36304;BME280;22335;49.800;8.596;2023-10-09T14:31:36;100817.81;;;25.05;50.72
36304;BME280;22335;49.800;8.596;2023-10-09T14:38:21;100809.44;;;25.05;50.71
36304;BME280;22335;49.800;8.596;2023-10-09T14:45:10;100815.09;;;25.08;50.71
36304;BME280;22335;49.800;8.596;2023-10-09T14:51:56;100815.91;;;25.09;50.58
36304;BME280;22335;49.800;8.596;2023-10-09T14:58:40;100801.13;;;25.08;50.39
36304;BME280;22335;49.800;8.596;2023-10-09T15:05:27;100797.13;;;25.10;50.12
36304;BME280;22335;49.800;8.596;2023-10-09T15:12:14;100811.66;;;25.15;49.87
36304;BME280;22335;49.800;8.596;2023-10-09T15:18:58;100801.66;;;25.18;50.08
36304;BME280;22335;49.800;8.596;2023-10-09T15:25:46;100795.69;;;25.19;50.08
36304;BME280;22335;49.800;8.596;2023-10-09T15:32:31;100812.09;;;25.21;49.87
36304;BME280;22335;49.800;8.596;2023-10-09T15:39:16;100810.19;;;25.25;49.72
36304;BME280;22335;49.800;8.596;2023-10-09T15:46:02;100810.19;;;25.25;49.75
36304;BME280;22335;49.800;8.596;2023-10-09T15:52:45;100808.34;;;25.36;49.62
36304;BME280;22335;49.800;8.596;2023-10-09T15:59:32;100826.56;;;25.49;49.34
36304;BME280;22335;49.800;8.596;2023-10-09T16:06:17;100820.75;;;25.62;49.35
36304;BME280;22335;49.800;8.596;2023-10-09T16:13:01;100825.25;;;25.70;49.03
36304;BME280;22335;49.800;8.596;2023-10-09T16:19:45;100822.56;;;25.77;49.31
36304;BME280;22335;49.800;8.596;2023-10-09T16:26:30;100830.53;;;25.75;49.40
36304;BME280;22335;49.800;8.596;2023-10-09T16:33:21;100819.69;;;25.73;49.43
36304;BME280;22335;49.800;8.596;2023-10-09T16:40:06;100825.25;;;25.70;49.23
36304;BME280;22335;49.800;8.596;2023-10-09T16:46:54;100827.63;;;25.68;49.40
36304;BME280;22335;49.800;8.596;2023-10-09T16:53:39;100842.00;;;25.66;49.21
36304;BME280;22335;49.800;8.596;2023-10-09T17:00:23;100850.75;;;25.61;49.53
36304;BME280;22335;49.800;8.596;2023-10-09T17:07:17;100836.25;;;25.56;49.48
36304;BME280;22335;49.800;8.596;2023-10-09T17:14:04;100854.22;;;25.54;49.21
36304;BME280;22335;49.800;8.596;2023-10-09T17:20:48;100860.19;;;25.49;49.29
36304;BME280;22335;49.800;8.596;2023-10-09T17:27:33;100856.19;;;25.50;48.98
36304;BME280;22335;49.800;8.596;2023-10-09T17:34:16;100855.69;;;25.45;49.19
36304;BME280;22335;49.800;8.596;2023-10-09T17:41:00;100856.38;;;25.38;49.22
36304;BME280;22335;49.800;8.596;2023-10-09T17:47:45;100855.53;;;25.34;49.03
36304;BME280;22335;49.800;8.596;2023-10-09T17:54:32;100857.16;;;25.35;48.72
36304;BME280;22335;49.800;8.596;2023-10-09T18:01:16;100854.72;;;25.34;48.80
36304;BME280;22335;49.800;8.596;2023-10-09T18:08:01;100862.19;;;25.26;48.90
36304;BME280;22335;49.800;8.596;2023-10-09T18:14:45;100879.69;;;25.19;48.73
36304;BME280;22335;49.800;8.596;2023-10-09T18:21:28;100880.28;;;25.09;48.68
36304;BME280;22335;49.800;8.596;2023-10-09T18:28:18;100888.94;;;25.00;48.92
36304;BME280;22335;49.800;8.596;2023-10-09T18:35:01;100894.41;;;24.93;48.91
36304;BME280;22335;49.800;8.596;2023-10-09T18:41:45;100896.75;;;24.91;48.98
36304;BME280;22335;49.800;8.596;2023-10-09T18:48:31;100904.63;;;24.85;48.89
36304;BME280;22335;49.800;8.596;2023-10-09T18:55:14;100899.84;;;24.86;48.70
36304;BME280;22335;49.800;8.596;2023-10-09T19:01:59;100900.81;;;24.94;48.28
36304;BME280;22335;49.800;8.596;2023-10-09T19:08:47;100902.41;;;24.95;48.23
36304;BME280;22335;49.800;8.596;2023-10-09T19:15:31;100912.75;;;24.91;48.35
36304;BME280;22335;49.800;8.596;2023-10-09T19:22:14;100922.97;;;24.83;48.49
36304;BME280;22335;49.800;8.596;2023-10-09T19:28:59;100908.34;;;24.70;48.29
36304;BME280;22335;49.800;8.596;2023-10-09T19:35:43;100911.81;;;24.64;48.73
36304;BME280;22335;49.800;8.596;2023-10-09T19:42:27;100918.53;;;24.59;48.55
36304;BME280;22335;49.800;8.596;2023-10-09T19:49:13;100918.53;;;24.59;48.22
36304;BME280;22335;49.800;8.596;2023-10-09T19:55:58;100928.47;;;24.56;48.11
36304;BME280;22335;49.800;8.596;2023-10-09T20:02:43;100939.19;;;24.54;48.24
36304;BME280;22335;49.800;8.596;2023-10-09T20:09:28;100945.81;;;24.46;48.43
36304;BME280;22335;49.800;8.596;2023-10-09T20:16:11;100945.91;;;24.34;48.56
36304;BME280;22335;49.800;8.596;2023-10-09T20:22:55;100954.63;;;24.29;48.08
36304;BME280;22335;49.800;8.596;2023-10-09T20:29:39;100961.50;;;24.15;48.10
36304;BME280;22335;49.800;8.596;2023-10-09T20:36:23;100958.47;;;24.05;48.37
36304;BME280;22335;49.800;8.596;2023-10-09T20:43:10;100974.28;;;23.97;48.42
36304;BME280;22335;49.800;8.596;2023-10-09T20:49:55;100967.22;;;23.87;48.49
36304;BME280;22335;49.800;8.596;2023-10-09T20:56:38;100978.25;;;23.80;48.23
36304;BME280;22335;49.800;8.596;2023-10-09T21:03:21;100973.22;;;23.70;48.34
36304;BME280;22335;49.800;8.596;2023-10-09T21:10:07;100967.78;;;23.61;48.24
36304;BME280;22335;49.800;8.596;2023-10-09T21:16:55;100978.41;;;23.56;48.27
36304;BME280;22335;49.800;8.596;2023-10-09T21:23:38;100990.47;;;23.44;48.25
36304;BME280;22335;49.800;8.596;2023-10-09T21:30:24;100990.53;;;23.32;48.58
36304;BME280;22335;49.800;8.596;2023-10-09T21:37:08;101000.34;;;23.25;48.35
36304;BME280;22335;49.800;8.596;2023-10-09T21:43:51;100990.16;;;23.17;48.37
36304;BME280;22335;49.800;8.596;2023-10-09T21:50:37;100992.50;;;23.15;48.23
36304;BME280;22335;49.800;8.596;2023-10-09T21:57:21;100996.16;;;23.04;48.32
36304;BME280;22335;49.800;8.596;2023-10-09T22:04:04;100999.56;;;22.97;48.32
36304;BME280;22335;49.800;8.596;2023-10-09T22:10:50;100991.78;;;22.90;48.53
36304;BME280;22335;49.800;8.596;2023-10-09T22:17:34;100994.72;;;22.82;48.49
36304;BME280;22335;49.800;8.596;2023-10-09T22:24:24;101001.28;;;22.73;48.60
36304;BME280;22335;49.800;8.596;2023-10-09T22:31:12;100998.25;;;22.66;48.41
36304;BME280;22335;49.800;8.596;2023-10-09T22:37:59;100993.66;;;22.58;48.64
36304;BME280;22335;49.800;8.596;2023-10-09T22:44:51;101002.50;;;22.48;48.69
36304;BME280;22335;49.800;8.596;2023-10-09T22:51:38;100989.97;;;22.42;48.67
36304;BME280;22335;49.800;8.596;2023-10-09T22:58:23;100991.75;;;22.34;48.86
36304;BME280;22335;49.800;8.596;2023-10-09T23:05:08;100993.75;;;22.21;48.71
36304;BME280;22335;49.800;8.596;2023-10-09T23:11:55;100995.09;;;22.15;48.63
36304;BME280;22335;49.800;8.596;2023-10-09T23:18:40;100989.28;;;22.08;48.74
36304;BME280;22335;49.800;8.596;2023-10-09T23:25:47;100997.19;;;22.06;48.85
36304;BME280;22335;49.800;8.596;2023-10-09T23:32:32;101000.69;;;22.03;48.84
36304;BME280;22335;49.800;8.596;2023-10-09T23:39:17;101002.09;;;21.97;48.82
36304;BME280;22335;49.800;8.596;2023-10-09T23:46:34;101000.00;;;21.94;48.75
36304;BME280;22335;49.800;8.596;2023-10-09T23:53:20;101004.88;;;21.97;48.67
